Time;durP1;ratioP1;P1;durP2;ratioP2;P2;SDS_P1;SDS_P2;PMS_P1;PMS_P2;Temp;Humidity;BMP_temperature;BMP_pressure;BME280_temperature;BME280_humidity;BME280_pressure;Samples;Min_cycle;Max_cycle;Signal;HPM_P1;HPM_P2
2022/08/10 00:00:21;;;;;;;3.08;2.35;;;;;;;;;;512292;29;671;-84
2022/08/10 00:00:36;;;;;;;2.80;2.40;;;;;;;;;;512513;28;1963;-84
2022/08/10 00:00:52;;;;;;;2.70;2.17;;;;;;;;;;512390;29;1377;-84
2022/08/10 00:01:08;;;;;;;3.00;2.37;;;;;;;;;;510162;29;1265;-83
2022/08/10 00:01:23;;;;;;;2.92;2.40;;;;;;;;;;508135;29;1208;-84
2022/08/10 00:01:39;;;;;;;2.63;2.23;;;;;;;;;;507695;29;1375;-83
2022/08/10 00:01:54;;;;;;;3.38;2.33;;;;;;;;;;505722;29;1234;-83
2022/08/10 00:02:09;;;;;;;3.67;2.40;;;;;;;;;;503638;29;1275;-83
2022/08/10 00:02:25;;;;;;;2.87;2.30;;;;;;;;;;505790;29;1348;-83
2022/08/10 00:02:40;;;;;;;2.63;2.17;;;;;;;;;;509619;29;1441;-83
2022/08/10 00:02:58;;;;;;;3.13;2.10;;;;;;;;;;507625;29;1175;-83
2022/08/10 00:03:13;;;;;;;3.83;2.20;;;;;;;;;;507809;29;1278;-83
2022/08/10 00:03:29;;;;;;;2.67;2.00;;;;;;;;;;510393;29;1311;-83
2022/08/10 00:03:45;;;;;;;2.25;2.05;;;;;;;;;;508326;29;1211;-83
2022/08/10 00:04:01;;;;;;;2.80;2.50;;;;;;;;;;510308;29;1368;-83
2022/08/10 00:04:16;;;;;;;3.42;2.65;;;;;;;;;;508263;29;1349;-84
2022/08/10 00:04:31;;;;;;;3.43;2.60;;;;;;;;;;508410;29;1198;-84
2022/08/10 00:04:47;;;;;;;4.83;2.87;;;;;;;;;;508489;29;849;-84
2022/08/10 00:05:03;;;;;;;6.07;3.10;;;;;;;;;;508530;29;905;-84
2022/08/10 00:05:19;;;;;;;4.85;2.85;;;;;;;;;;508685;29;1206;-84
2022/08/10 00:05:34;;;;;;;3.72;2.47;;;;;;;;;;507983;29;1238;-84
2022/08/10 00:05:53;;;;;;;4.80;2.33;;;;;;;;;;507825;29;1354;-83
2022/08/10 00:06:09;;;;;;;5.78;2.40;;;;;;;;;;508275;29;1273;-84
2022/08/10 00:06:25;;;;;;;4.60;2.40;;;;;;;;;;509485;29;925;-83
2022/08/10 00:06:40;;;;;;;3.65;2.47;;;;;;;;;;510386;29;921;-83
2022/08/10 00:06:56;;;;;;;4.07;2.40;;;;;;;;;;510288;29;1419;-83
2022/08/10 00:07:11;;;;;;;4.70;2.57;;;;;;;;;;512211;29;1274;-83
2022/08/10 00:07:26;;;;;;;4.22;2.70;;;;;;;;;;512313;29;984;-83
2022/08/10 00:07:42;;;;;;;3.30;2.40;;;;;;;;;;510170;29;1471;-84
2022/08/10 00:07:57;;;;;;;3.42;2.45;;;;;;;;;;509700;29;1237;-83
2022/08/10 00:08:12;;;;;;;3.67;2.60;;;;;;;;;;509886;29;1234;-83
2022/08/10 00:08:28;;;;;;;2.90;2.40;;;;;;;;;;508144;29;1294;-83
2022/08/10 00:08:43;;;;;;;3.25;2.40;;;;;;;;;;508297;29;821;-83
2022/08/10 00:08:59;;;;;;;2.97;2.40;;;;;;;;;;508490;29;1059;-83
2022/08/10 00:09:14;;;;;;;2.50;2.30;;;;;;;;;;508271;29;1274;-83
2022/08/10 00:09:29;;;;;;;3.08;2.40;;;;;;;;;;508763;29;1074;-83
2022/08/10 00:09:45;;;;;;;3.70;2.60;;;;;;;;;;508118;29;1292;-83
2022/08/10 00:10:00;;;;;;;3.53;2.60;;;;;;;;;;508415;29;1198;-83
2022/08/10 00:10:18;;;;;;;3.53;2.50;;;;;;;;;;508377;29;1012;-83
2022/08/10 00:10:34;;;;;;;3.42;2.33;;;;;;;;;;508291;29;915;-83
2022/08/10 00:10:53;;;;;;;3.28;2.40;;;;;;;;;;506407;29;1450;-83
2022/08/10 00:11:09;;;;;;;3.38;2.47;;;;;;;;;;509380;29;1484;-83
2022/08/10 00:11:24;;;;;;;3.22;2.35;;;;;;;;;;510300;29;1324;-83
2022/08/10 00:11:40;;;;;;;2.60;2.27;;;;;;;;;;510321;29;1000;-83
2022/08/10 00:11:55;;;;;;;3.77;2.40;;;;;;;;;;508255;29;1213;-83
2022/08/10 00:12:11;;;;;;;3.55;2.45;;;;;;;;;;508318;29;1333;-83
2022/08/10 00:12:26;;;;;;;3.07;2.40;;;;;;;;;;508341;29;1189;-83
2022/08/10 00:12:42;;;;;;;2.85;2.38;;;;;;;;;;510324;29;1347;-83
2022/08/10 00:12:57;;;;;;;3.78;2.40;;;;;;;;;;508591;29;1353;-83
2022/08/10 00:13:13;;;;;;;3.87;2.47;;;;;;;;;;508451;29;915;-83
2022/08/10 00:13:29;;;;;;;3.53;2.50;;;;;;;;;;510188;29;877;-83
2022/08/10 00:13:44;;;;;;;3.83;2.50;;;;;;;;;;510507;29;1249;-84
2022/08/10 00:14:00;;;;;;;3.70;2.40;;;;;;;;;;511708;29;936;-84
2022/08/10 00:14:15;;;;;;;4.30;2.37;;;;;;;;;;508365;29;1308;-83
2022/08/10 00:14:31;;;;;;;4.85;2.30;;;;;;;;;;510007;29;1372;-83
2022/08/10 00:14:46;;;;;;;4.13;2.33;;;;;;;;;;510129;29;1169;-83
2022/08/10 00:15:03;;;;;;;2.83;2.30;;;;;;;;;;510288;29;928;-83
2022/08/10 00:15:21;;;;;;;3.50;2.45;;;;;;;;;;510347;29;1049;-83
2022/08/10 00:15:36;;;;;;;3.95;2.45;;;;;;;;;;509712;29;1563;-83
2022/08/10 00:15:53;;;;;;;3.30;2.30;;;;;;;;;;508428;29;1325;-83
2022/08/10 00:16:08;;;;;;;2.80;2.40;;;;;;;;;;509291;29;1249;-83
2022/08/10 00:16:24;;;;;;;2.95;2.65;;;;;;;;;;509312;29;1223;-83
2022/08/10 00:16:39;;;;;;;2.90;2.50;;;;;;;;;;510522;29;1254;-83
2022/08/10 00:16:54;;;;;;;3.17;2.30;;;;;;;;;;510982;29;1335;-83
2022/08/10 00:17:10;;;;;;;3.80;2.40;;;;;;;;;;509154;29;1190;-83
2022/08/10 00:17:26;;;;;;;3.07;2.30;;;;;;;;;;511254;29;1186;-83
2022/08/10 00:17:41;;;;;;;2.40;2.20;;;;;;;;;;511308;29;1198;-83
2022/08/10 00:17:57;;;;;;;2.40;2.15;;;;;;;;;;509816;29;1257;-83
2022/08/10 00:18:13;;;;;;;2.70;2.20;;;;;;;;;;509433;29;1167;-84
2022/08/10 00:18:28;;;;;;;4.82;2.30;;;;;;;;;;509986;29;1182;-84
2022/08/10 00:18:44;;;;;;;5.07;2.30;;;;;;;;;;510091;29;932;-84
2022/08/10 00:18:59;;;;;;;3.85;2.13;;;;;;;;;;510227;29;1305;-84
2022/08/10 00:19:15;;;;;;;3.70;2.20;;;;;;;;;;506230;29;1356;-84
2022/08/10 00:19:30;;;;;;;3.60;2.30;;;;;;;;;;506457;29;1196;-84
2022/08/10 00:19:46;;;;;;;3.50;2.43;;;;;;;;;;506781;29;1147;-84
2022/08/10 00:20:01;;;;;;;4.32;2.50;;;;;;;;;;510359;29;1179;-84
2022/08/10 00:20:17;;;;;;;4.60;2.43;;;;;;;;;;510442;29;1151;-84
2022/08/10 00:20:32;;;;;;;3.35;2.33;;;;;;;;;;510159;29;1891;-84
2022/08/10 00:20:48;;;;;;;4.00;2.47;;;;;;;;;;510264;29;1601;-84
2022/08/10 00:21:05;;;;;;;3.40;2.40;;;;;;;;;;510635;29;1109;-84
2022/08/10 00:21:20;;;;;;;3.30;2.20;;;;;;;;;;508353;29;1360;-84
2022/08/10 00:21:36;;;;;;;4.97;2.33;;;;;;;;;;506299;29;1179;-83
2022/08/10 00:21:51;;;;;;;4.55;2.60;;;;;;;;;;506436;29;1243;-83
2022/08/10 00:22:07;;;;;;;3.03;2.40;;;;;;;;;;504384;29;1178;-83
2022/08/10 00:22:22;;;;;;;2.53;2.30;;;;;;;;;;504448;29;1214;-83
2022/08/10 00:22:38;;;;;;;2.50;2.30;;;;;;;;;;504453;29;1191;-83
2022/08/10 00:22:53;;;;;;;2.33;2.10;;;;;;;;;;506427;29;1215;-83
2022/08/10 00:23:09;;;;;;;2.50;2.00;;;;;;;;;;510149;29;1276;-83
2022/08/10 00:23:24;;;;;;;2.67;2.10;;;;;;;;;;508368;29;1230;-83
2022/08/10 00:23:40;;;;;;;3.13;2.10;;;;;;;;;;508260;29;814;-83
2022/08/10 00:23:55;;;;;;;3.13;2.15;;;;;;;;;;510268;29;1312;-83
2022/08/10 00:24:11;;;;;;;2.87;2.23;;;;;;;;;;512202;29;1324;-83
2022/08/10 00:24:26;;;;;;;3.03;2.40;;;;;;;;;;512272;29;814;-83
2022/08/10 00:24:41;;;;;;;2.63;2.33;;;;;;;;;;511949;29;801;-83
2022/08/10 00:24:57;;;;;;;4.07;2.47;;;;;;;;;;511997;29;1191;-83
2022/08/10 00:25:13;;;;;;;4.80;2.60;;;;;;;;;;510161;29;1174;-84
2022/08/10 00:25:28;;;;;;;3.50;2.40;;;;;;;;;;510473;29;813;-84
2022/08/10 00:25:44;;;;;;;2.83;2.30;;;;;;;;;;508274;29;1162;-83
2022/08/10 00:26:00;;;;;;;3.67;2.40;;;;;;;;;;508341;29;805;-83
2022/08/10 00:26:15;;;;;;;3.92;2.30;;;;;;;;;;508126;29;1213;-83
2022/08/10 00:26:31;;;;;;;2.80;2.10;;;;;;;;;;508149;29;1315;-83
2022/08/10 00:26:46;;;;;;;3.00;2.27;;;;;;;;;;506209;29;1254;-83
2022/08/10 00:27:02;;;;;;;3.10;2.30;;;;;;;;;;506664;29;1315;-83
2022/08/10 00:27:18;;;;;;;2.58;2.38;;;;;;;;;;509993;29;1361;-83
2022/08/10 00:27:34;;;;;;;2.47;2.27;;;;;;;;;;510333;29;801;-83
2022/08/10 00:27:49;;;;;;;2.67;2.22;;;;;;;;;;508299;29;1278;-83
2022/08/10 00:28:04;;;;;;;3.40;2.30;;;;;;;;;;508303;29;1221;-83
2022/08/10 00:28:20;;;;;;;3.03;2.15;;;;;;;;;;508749;29;1024;-83
2022/08/10 00:28:37;;;;;;;2.30;2.10;;;;;;;;;;508653;29;1179;-83
2022/08/10 00:28:53;;;;;;;4.28;2.30;;;;;;;;;;508337;29;1306;-83
2022/08/10 00:29:08;;;;;;;4.53;2.20;;;;;;;;;;507745;29;924;-83
2022/08/10 00:29:23;;;;;;;2.60;2.20;;;;;;;;;;506425;29;1207;-83
2022/08/10 00:29:39;;;;;;;2.70;2.30;;;;;;;;;;508837;29;1199;-84
2022/08/10 00:29:55;;;;;;;2.67;2.20;;;;;;;;;;510220;29;1230;-83
2022/08/10 00:30:11;;;;;;;2.40;2.20;;;;;;;;;;508205;29;1332;-83
2022/08/10 00:30:26;;;;;;;3.08;2.10;;;;;;;;;;508197;29;1394;-83
2022/08/10 00:30:42;;;;;;;3.75;2.00;;;;;;;;;;508549;29;920;-84
2022/08/10 00:30:57;;;;;;;3.43;2.20;;;;;;;;;;508313;29;1214;-83
2022/08/10 00:31:13;;;;;;;2.75;2.30;;;;;;;;;;508353;29;1007;-83
2022/08/10 00:31:28;;;;;;;3.13;2.20;;;;;;;;;;508036;29;852;-83
2022/08/10 00:31:44;;;;;;;3.35;2.20;;;;;;;;;;508723;29;1269;-83
2022/08/10 00:31:59;;;;;;;3.33;2.30;;;;;;;;;;510714;29;1166;-83
2022/08/10 00:32:15;;;;;;;4.13;2.50;;;;;;;;;;510067;29;1332;-83
2022/08/10 00:32:30;;;;;;;3.70;2.57;;;;;;;;;;510316;29;1216;-83
2022/08/10 00:32:45;;;;;;;3.30;2.40;;;;;;;;;;508211;29;1215;-83
2022/08/10 00:33:01;;;;;;;4.07;2.40;;;;;;;;;;508439;29;912;-83
2022/08/10 00:33:17;;;;;;;3.90;2.50;;;;;;;;;;508184;29;810;-83
2022/08/10 00:33:32;;;;;;;2.60;2.40;;;;;;;;;;508080;29;892;-83
2022/08/10 00:33:48;;;;;;;3.23;2.30;;;;;;;;;;506320;29;868;-83
2022/08/10 00:34:03;;;;;;;3.75;2.40;;;;;;;;;;506579;29;1270;-83
2022/08/10 00:34:18;;;;;;;3.57;2.50;;;;;;;;;;508550;29;1339;-84
2022/08/10 00:34:34;;;;;;;3.30;2.30;;;;;;;;;;510675;29;944;-83
2022/08/10 00:34:50;;;;;;;4.88;2.40;;;;;;;;;;512244;29;1470;-83
2022/08/10 00:35:06;;;;;;;5.87;2.60;;;;;;;;;;510211;29;1427;-83
2022/08/10 00:35:21;;;;;;;3.78;2.40;;;;;;;;;;510333;29;1069;-84
2022/08/10 00:35:36;;;;;;;3.17;2.27;;;;;;;;;;508314;29;1261;-84
2022/08/10 00:35:52;;;;;;;3.70;2.40;;;;;;;;;;506416;29;1521;-84
2022/08/10 00:36:07;;;;;;;3.60;2.30;;;;;;;;;;506115;29;932;-83
2022/08/10 00:36:23;;;;;;;2.73;2.20;;;;;;;;;;506364;29;1211;-83
2022/08/10 00:36:38;;;;;;;3.45;2.47;;;;;;;;;;508308;29;1208;-83
2022/08/10 00:36:54;;;;;;;3.47;2.30;;;;;;;;;;508584;29;961;-83
2022/08/10 00:37:10;;;;;;;2.50;2.00;;;;;;;;;;508332;29;1369;-83
2022/08/10 00:37:26;;;;;;;2.47;2.10;;;;;;;;;;508773;29;1106;-83
2022/08/10 00:37:41;;;;;;;2.40;2.20;;;;;;;;;;510825;29;844;-83
2022/08/10 00:37:56;;;;;;;2.60;2.20;;;;;;;;;;510376;29;1272;-83
2022/08/10 00:38:12;;;;;;;2.40;2.10;;;;;;;;;;508267;29;1248;-83
2022/08/10 00:38:27;;;;;;;2.45;2.10;;;;;;;;;;505818;29;1332;-83
2022/08/10 00:38:43;;;;;;;3.87;2.17;;;;;;;;;;504533;29;837;-84
2022/08/10 00:38:58;;;;;;;4.25;2.30;;;;;;;;;;504762;29;1151;-83
2022/08/10 00:39:13;;;;;;;3.70;2.33;;;;;;;;;;504435;29;1184;-83
2022/08/10 00:39:29;;;;;;;3.83;2.33;;;;;;;;;;504414;29;1177;-83
2022/08/10 00:39:45;;;;;;;3.22;2.40;;;;;;;;;;506302;29;1223;-83
2022/08/10 00:40:01;;;;;;;3.55;2.60;;;;;;;;;;508308;29;1480;-83
2022/08/10 00:40:16;;;;;;;3.60;2.50;;;;;;;;;;510244;29;1206;-83
2022/08/10 00:40:32;;;;;;;3.93;2.30;;;;;;;;;;510181;29;1977;-83
2022/08/10 00:40:47;;;;;;;4.77;2.27;;;;;;;;;;510143;29;1331;-83
2022/08/10 00:41:03;;;;;;;3.55;2.22;;;;;;;;;;508178;29;1288;-83
2022/08/10 00:41:18;;;;;;;3.63;2.28;;;;;;;;;;508757;29;817;-83
2022/08/10 00:41:34;;;;;;;4.57;2.30;;;;;;;;;;508209;29;1201;-83
2022/08/10 00:41:49;;;;;;;3.93;2.20;;;;;;;;;;508294;29;905;-84
2022/08/10 00:42:07;;;;;;;3.10;2.20;;;;;;;;;;508373;29;1312;-84
2022/08/10 00:42:23;;;;;;;3.50;2.40;;;;;;;;;;508337;29;1402;-84
2022/08/10 00:42:38;;;;;;;3.67;2.27;;;;;;;;;;508894;29;1281;-84
2022/08/10 00:42:53;;;;;;;3.63;2.38;;;;;;;;;;510922;29;1255;-84
2022/08/10 00:43:09;;;;;;;3.47;2.37;;;;;;;;;;510259;29;1335;-83
2022/08/10 00:43:24;;;;;;;3.57;2.20;;;;;;;;;;512291;29;1275;-83
2022/08/10 00:43:40;;;;;;;3.70;2.20;;;;;;;;;;508131;29;1421;-83
2022/08/10 00:43:55;;;;;;;3.73;2.23;;;;;;;;;;508285;29;1260;-84
2022/08/10 00:44:10;;;;;;;4.93;2.40;;;;;;;;;;506002;29;1348;-84
2022/08/10 00:44:26;;;;;;;3.90;2.20;;;;;;;;;;510046;29;1247;-84
2022/08/10 00:44:48;;;;;;;2.78;2.20;;;;;;;;;;510076;29;896;-83
2022/08/10 00:45:04;;;;;;;3.72;2.38;;;;;;;;;;510172;29;1222;-84
2022/08/10 00:45:20;;;;;;;3.28;2.40;;;;;;;;;;510150;29;1237;-84
2022/08/10 00:45:35;;;;;;;4.37;2.33;;;;;;;;;;508123;29;1285;-84
2022/08/10 00:45:51;;;;;;;5.38;2.50;;;;;;;;;;509530;29;1465;-84
2022/08/10 00:46:07;;;;;;;3.60;2.53;;;;;;;;;;510078;29;1289;-84
2022/08/10 00:46:22;;;;;;;2.97;2.43;;;;;;;;;;506917;29;1287;-84
2022/08/10 00:46:37;;;;;;;2.80;2.40;;;;;;;;;;506333;29;952;-83
2022/08/10 00:46:53;;;;;;;3.60;2.30;;;;;;;;;;508610;29;1289;-83
2022/08/10 00:47:11;;;;;;;3.60;2.30;;;;;;;;;;510110;29;1206;-84
2022/08/10 00:47:26;;;;;;;3.95;2.30;;;;;;;;;;508283;29;1310;-83
2022/08/10 00:47:42;;;;;;;3.90;2.17;;;;;;;;;;506329;29;1204;-83
2022/08/10 00:47:57;;;;;;;3.47;2.10;;;;;;;;;;507074;29;848;-83
2022/08/10 00:48:12;;;;;;;3.53;2.20;;;;;;;;;;508241;29;1161;-83
2022/08/10 00:48:29;;;;;;;2.60;2.20;;;;;;;;;;506400;29;1154;-83
2022/08/10 00:48:44;;;;;;;4.15;2.25;;;;;;;;;;506224;29;1463;-83
2022/08/10 00:49:00;;;;;;;5.45;2.30;;;;;;;;;;506992;29;971;-83
2022/08/10 00:49:16;;;;;;;5.17;2.50;;;;;;;;;;507972;29;1182;-83
2022/08/10 00:49:31;;;;;;;4.50;2.40;;;;;;;;;;508714;29;832;-83
2022/08/10 00:49:47;;;;;;;3.53;2.20;;;;;;;;;;509915;29;1280;-83
2022/08/10 00:50:05;;;;;;;2.65;2.10;;;;;;;;;;510303;29;987;-83
2022/08/10 00:50:21;;;;;;;2.72;2.20;;;;;;;;;;510217;29;1284;-84
2022/08/10 00:50:36;;;;;;;2.70;2.10;;;;;;;;;;510219;29;1231;-84
2022/08/10 00:50:52;;;;;;;2.72;2.13;;;;;;;;;;510238;29;1272;-84
2022/08/10 00:51:07;;;;;;;4.40;2.37;;;;;;;;;;509536;29;959;-83
2022/08/10 00:51:23;;;;;;;5.10;2.43;;;;;;;;;;508252;29;1249;-83
2022/08/10 00:51:39;;;;;;;3.72;2.40;;;;;;;;;;508169;29;1187;-83
2022/08/10 00:51:54;;;;;;;3.20;2.30;;;;;;;;;;506304;29;1300;-83
2022/08/10 00:52:14;;;;;;;3.38;2.20;;;;;;;;;;508285;29;1304;-83
2022/08/10 00:52:30;;;;;;;3.75;2.50;;;;;;;;;;508190;29;1229;-83
2022/08/10 00:52:46;;;;;;;4.03;2.60;;;;;;;;;;506193;29;1361;-83
2022/08/10 00:53:01;;;;;;;3.85;2.40;;;;;;;;;;510054;29;1481;-83
2022/08/10 00:53:17;;;;;;;4.25;2.30;;;;;;;;;;508161;29;1626;-83
2022/08/10 00:53:32;;;;;;;3.83;2.30;;;;;;;;;;508242;29;1175;-83
2022/08/10 00:53:48;;;;;;;2.80;2.40;;;;;;;;;;504299;29;1273;-84
2022/08/10 00:54:05;;;;;;;2.88;2.28;;;;;;;;;;506242;29;1457;-84
2022/08/10 00:54:21;;;;;;;3.20;2.30;;;;;;;;;;508303;29;1297;-84
2022/08/10 00:54:36;;;;;;;3.67;2.20;;;;;;;;;;508300;29;841;-84
2022/08/10 00:54:52;;;;;;;5.60;2.20;;;;;;;;;;510331;29;1359;-84
2022/08/10 00:55:07;;;;;;;5.07;2.17;;;;;;;;;;510121;29;1177;-83
2022/08/10 00:55:23;;;;;;;3.60;2.13;;;;;;;;;;510286;29;1148;-84
2022/08/10 00:55:39;;;;;;;3.58;2.30;;;;;;;;;;510243;29;1173;-84
2022/08/10 00:55:55;;;;;;;2.97;2.35;;;;;;;;;;510385;29;866;-84
2022/08/10 00:56:10;;;;;;;3.30;2.40;;;;;;;;;;509715;29;1463;-84
2022/08/10 00:56:27;;;;;;;2.87;2.30;;;;;;;;;;508298;29;1214;-84
2022/08/10 00:56:42;;;;;;;2.55;2.25;;;;;;;;;;508206;29;1393;-84
2022/08/10 00:56:58;;;;;;;2.80;2.30;;;;;;;;;;510385;29;1190;-84
2022/08/10 00:57:13;;;;;;;2.78;2.20;;;;;;;;;;509642;29;940;-83
2022/08/10 00:57:29;;;;;;;2.73;2.13;;;;;;;;;;506320;29;1311;-83
2022/08/10 00:57:46;;;;;;;3.08;2.20;;;;;;;;;;506301;29;917;-83
2022/08/10 00:58:02;;;;;;;3.65;2.22;;;;;;;;;;506403;29;1250;-84
2022/08/10 00:58:17;;;;;;;3.70;2.30;;;;;;;;;;507063;29;1264;-83
2022/08/10 00:58:33;;;;;;;3.50;2.27;;;;;;;;;;508473;29;1222;-84
2022/08/10 00:58:49;;;;;;;3.55;2.25;;;;;;;;;;507931;29;1250;-84
2022/08/10 00:59:04;;;;;;;3.03;2.27;;;;;;;;;;507873;29;1186;-83
2022/08/10 00:59:20;;;;;;;2.90;2.30;;;;;;;;;;510219;29;1293;-83
2022/08/10 00:59:35;;;;;;;2.43;2.20;;;;;;;;;;512050;29;1189;-83
2022/08/10 00:59:52;;;;;;;2.97;2.20;;;;;;;;;;512223;29;1205;-83
2022/08/10 01:00:08;;;;;;;4.13;2.33;;;;;;;;;;510031;29;1265;-84
2022/08/10 01:00:24;;;;;;;3.72;2.30;;;;;;;;;;508183;29;1226;-84
2022/08/10 01:00:41;;;;;;;2.40;2.20;;;;;;;;;;508061;29;1918;-83
2022/08/10 01:00:57;;;;;;;5.72;2.38;;;;;;;;;;508304;29;1352;-84
2022/08/10 01:01:12;;;;;;;6.50;2.30;;;;;;;;;;508172;29;933;-84
2022/08/10 01:01:28;;;;;;;5.10;2.22;;;;;;;;;;505610;29;1315;-84
2022/08/10 01:01:43;;;;;;;4.70;2.40;;;;;;;;;;504312;29;1259;-84
2022/08/10 01:01:59;;;;;;;3.20;2.40;;;;;;;;;;504290;29;1285;-83
2022/08/10 01:02:14;;;;;;;3.83;2.30;;;;;;;;;;504854;29;1026;-83
2022/08/10 01:02:30;;;;;;;4.00;2.20;;;;;;;;;;504336;29;1151;-83
2022/08/10 01:02:46;;;;;;;3.28;2.25;;;;;;;;;;504561;29;1573;-83
2022/08/10 01:03:01;;;;;;;3.47;2.37;;;;;;;;;;508335;29;1154;-83
2022/08/10 01:03:17;;;;;;;4.22;2.30;;;;;;;;;;508141;29;1445;-83
2022/08/10 01:03:32;;;;;;;5.53;2.47;;;;;;;;;;508083;29;1198;-83
2022/08/10 01:03:47;;;;;;;4.83;2.40;;;;;;;;;;508175;29;1310;-84
2022/08/10 01:04:03;;;;;;;3.47;2.35;;;;;;;;;;506226;29;1216;-83
2022/08/10 01:04:19;;;;;;;4.05;2.40;;;;;;;;;;508174;29;1383;-83
2022/08/10 01:04:34;;;;;;;3.50;2.27;;;;;;;;;;510172;29;1273;-84
2022/08/10 01:04:50;;;;;;;2.97;2.10;;;;;;;;;;510320;29;1166;-84
2022/08/10 01:05:11;;;;;;;3.80;2.10;;;;;;;;;;509955;29;805;-84
2022/08/10 01:05:26;;;;;;;3.60;2.05;;;;;;;;;;508333;29;841;-84
2022/08/10 01:05:56;;;;;;;4.20;2.45;;;;;;;;;;509344;29;1174;-83
2022/08/10 01:06:22;;;;;;;3.17;2.25;;;;;;;;;;510172;29;1357;-83
2022/08/10 01:06:44;;;;;;;3.42;2.45;;;;;;;;;;510164;29;920;-83
2022/08/10 01:07:20;;;;;;;4.70;2.50;;;;;;;;;;510153;29;896;-83
2022/08/10 01:08:13;;;;;;;3.60;2.28;;;;;;;;;;508093;29;897;-83
2022/08/10 01:08:28;;;;;;;4.10;2.65;;;;;;;;;;510182;29;1349;-83
2022/08/10 01:08:54;;;;;;;4.88;2.80;;;;;;;;;;510211;29;1407;-84
2022/08/10 01:09:19;;;;;;;3.33;2.22;;;;;;;;;;510266;29;821;-84
2022/08/10 01:09:58;;;;;;;2.63;2.15;;;;;;;;;;511739;29;1257;-84
2022/08/10 01:10:33;;;;;;;2.85;2.25;;;;;;;;;;510114;29;1280;-84
2022/08/10 01:11:10;;;;;;;3.40;2.30;;;;;;;;;;512171;29;1358;-83
2022/08/10 01:11:48;;;;;;;5.75;2.38;;;;;;;;;;509676;29;1312;-83
2022/08/10 01:12:06;;;;;;;3.80;2.40;;;;;;;;;;506383;29;1321;-83
2022/08/10 01:12:50;;;;;;;4.40;2.45;;;;;;;;;;507960;29;1233;-83
2022/08/10 01:13:44;;;;;;;3.20;2.30;;;;;;;;;;505707;29;1243;-84
2022/08/10 01:14:21;;;;;;;5.00;2.70;;;;;;;;;;509365;29;1192;-83
2022/08/10 01:14:57;;;;;;;4.32;2.40;;;;;;;;;;512149;29;1010;-83
2022/08/10 01:15:31;;;;;;;3.05;2.40;;;;;;;;;;511910;29;1294;-83
2022/08/10 01:16:19;;;;;;;3.05;2.03;;;;;;;;;;512012;29;1035;-83
2022/08/10 01:16:49;;;;;;;3.70;2.30;;;;;;;;;;509804;29;1225;-83
2022/08/10 01:17:24;;;;;;;4.68;2.30;;;;;;;;;;509770;29;912;-83
2022/08/10 01:17:52;;;;;;;3.95;2.42;;;;;;;;;;507792;29;1216;-84
2022/08/10 01:18:20;;;;;;;3.70;2.40;;;;;;;;;;510022;29;1220;-84
2022/08/10 01:18:52;;;;;;;2.72;2.20;;;;;;;;;;508015;29;1494;-84
2022/08/10 01:19:07;;;;;;;4.28;2.40;;;;;;;;;;508090;29;901;-83
2022/08/10 01:20:05;;;;;;;4.70;2.50;;;;;;;;;;510100;29;1325;-83
2022/08/10 01:21:10;;;;;;;3.92;2.58;;;;;;;;;;510098;29;880;-83
2022/08/10 01:22:00;;;;;;;5.32;2.20;;;;;;;;;;504072;29;1457;-83
2022/08/10 01:22:18;;;;;;;3.22;2.38;;;;;;;;;;501946;29;1254;-83
2022/08/10 01:22:53;;;;;;;3.00;2.28;;;;;;;;;;502230;29;1358;-83
2022/08/10 01:23:24;;;;;;;3.70;2.38;;;;;;;;;;501704;29;1338;-83
2022/08/10 01:23:54;;;;;;;3.38;2.35;;;;;;;;;;510041;29;923;-83
2022/08/10 01:24:31;;;;;;;3.88;2.38;;;;;;;;;;509816;29;1309;-83
2022/08/10 01:24:58;;;;;;;4.03;2.30;;;;;;;;;;510105;29;924;-83
2022/08/10 01:25:13;;;;;;;3.70;2.40;;;;;;;;;;510055;29;932;-84
2022/08/10 01:25:57;;;;;;;4.67;2.23;;;;;;;;;;510421;29;950;-84
2022/08/10 01:26:46;;;;;;;4.63;2.38;;;;;;;;;;509978;29;1507;-84
2022/08/10 01:27:20;;;;;;;4.13;2.40;;;;;;;;;;510057;29;1469;-83
2022/08/10 01:27:42;;;;;;;5.32;2.40;;;;;;;;;;510122;29;935;-83
2022/08/10 01:28:13;;;;;;;4.80;2.13;;;;;;;;;;508350;29;1488;-84
2022/08/10 01:28:46;;;;;;;3.95;2.50;;;;;;;;;;508366;29;963;-83
2022/08/10 01:29:26;;;;;;;4.78;2.38;;;;;;;;;;511781;29;1198;-83
2022/08/10 01:29:54;;;;;;;3.53;2.47;;;;;;;;;;512078;28;1558;-83
2022/08/10 01:30:17;;;;;;;4.75;2.35;;;;;;;;;;512055;29;1476;-83
2022/08/10 01:30:35;;;;;;;3.50;2.20;;;;;;;;;;512153;29;849;-83
2022/08/10 01:30:53;;;;;;;3.30;2.33;;;;;;;;;;510014;29;1258;-83
2022/08/10 01:31:13;;;;;;;3.58;2.50;;;;;;;;;;508185;29;817;-83
2022/08/10 01:31:40;;;;;;;4.43;2.40;;;;;;;;;;506192;29;1302;-83
2022/08/10 01:32:03;;;;;;;4.07;2.30;;;;;;;;;;504303;29;1345;-83
2022/08/10 01:32:43;;;;;;;2.83;2.25;;;;;;;;;;504217;29;1216;-83
2022/08/10 01:33:09;;;;;;;2.53;2.15;;;;;;;;;;506070;29;1246;-83
2022/08/10 01:33:28;;;;;;;3.65;2.17;;;;;;;;;;507453;29;841;-83
2022/08/10 01:33:52;;;;;;;5.72;2.50;;;;;;;;;;508355;29;1047;-84
2022/08/10 01:34:12;;;;;;;5.88;2.67;;;;;;;;;;512370;28;1376;-83
2022/08/10 01:34:32;;;;;;;2.90;2.35;;;;;;;;;;512131;29;1490;-83
2022/08/10 01:34:57;;;;;;;4.45;2.20;;;;;;;;;;511982;29;1562;-83
2022/08/10 01:35:30;;;;;;;4.80;2.40;;;;;;;;;;509998;29;1311;-84
2022/08/10 01:35:55;;;;;;;3.72;2.22;;;;;;;;;;510098;29;866;-84
2022/08/10 01:36:14;;;;;;;3.50;2.30;;;;;;;;;;508145;29;1258;-83
2022/08/10 01:36:34;;;;;;;3.30;2.20;;;;;;;;;;510331;29;1343;-83
2022/08/10 01:37:02;;;;;;;3.22;2.20;;;;;;;;;;509955;29;1262;-83
2022/08/10 01:37:23;;;;;;;3.63;2.30;;;;;;;;;;509954;29;1437;-84
2022/08/10 01:37:45;;;;;;;3.22;2.25;;;;;;;;;;510052;29;852;-84
2022/08/10 01:38:05;;;;;;;2.85;2.13;;;;;;;;;;507994;29;1235;-83
2022/08/10 01:38:28;;;;;;;3.33;2.13;;;;;;;;;;508106;29;1281;-83
2022/08/10 01:38:49;;;;;;;4.45;2.30;;;;;;;;;;507981;29;821;-83
2022/08/10 01:39:06;;;;;;;3.47;2.30;;;;;;;;;;510155;29;1494;-84
2022/08/10 01:39:25;;;;;;;3.83;2.30;;;;;;;;;;512149;29;964;-84
2022/08/10 01:39:45;;;;;;;3.72;2.15;;;;;;;;;;513924;28;865;-84
2022/08/10 01:40:05;;;;;;;3.28;2.20;;;;;;;;;;512015;29;1032;-84
2022/08/10 01:40:24;;;;;;;3.47;2.30;;;;;;;;;;510014;29;1536;-83
2022/08/10 01:40:52;;;;;;;3.85;2.28;;;;;;;;;;510074;29;1910;-83
2022/08/10 01:41:28;;;;;;;4.20;2.50;;;;;;;;;;508010;29;928;-84
2022/08/10 01:41:46;;;;;;;5.30;2.22;;;;;;;;;;505936;29;1405;-83
2022/08/10 01:42:03;;;;;;;5.45;2.30;;;;;;;;;;509865;29;1242;-84
2022/08/10 01:42:20;;;;;;;3.95;2.35;;;;;;;;;;509589;29;1368;-84
2022/08/10 01:42:37;;;;;;;5.07;2.40;;;;;;;;;;508787;29;1359;-84
2022/08/10 01:42:56;;;;;;;4.03;2.30;;;;;;;;;;508169;29;1490;-84
2022/08/10 01:43:15;;;;;;;4.30;2.60;;;;;;;;;;510214;29;972;-84
2022/08/10 01:43:33;;;;;;;4.43;2.40;;;;;;;;;;510265;29;1379;-84
2022/08/10 01:43:55;;;;;;;4.45;2.40;;;;;;;;;;512070;29;951;-84
2022/08/10 01:44:18;;;;;;;3.85;2.30;;;;;;;;;;507939;29;1370;-83
2022/08/10 01:44:36;;;;;;;3.03;2.20;;;;;;;;;;509676;29;948;-83
2022/08/10 01:44:56;;;;;;;2.47;2.10;;;;;;;;;;510081;29;1413;-83
2022/08/10 01:45:13;;;;;;;2.95;2.30;;;;;;;;;;510153;29;841;-83
2022/08/10 01:45:31;;;;;;;4.60;2.28;;;;;;;;;;510148;29;1475;-83
2022/08/10 01:45:52;;;;;;;4.70;2.20;;;;;;;;;;510050;29;1306;-83
2022/08/10 01:46:09;;;;;;;2.72;2.20;;;;;;;;;;509949;29;1250;-83
2022/08/10 01:46:26;;;;;;;4.00;2.20;;;;;;;;;;510198;29;1242;-83
2022/08/10 01:46:47;;;;;;;3.92;2.25;;;;;;;;;;510197;29;960;-83
2022/08/10 01:48:30;;;;;;;5.93;2.33;;;;;;;;;;510196;29;712;-83
2022/08/10 01:48:50;;;;;;;3.28;2.25;;;;;;;;;;510004;29;1372;-83
2022/08/10 01:49:12;;;;;;;3.45;2.20;;;;;;;;;;509830;29;1458;-83
2022/08/10 01:49:29;;;;;;;3.97;2.25;;;;;;;;;;508194;29;1241;-83
2022/08/10 01:49:47;;;;;;;4.03;2.30;;;;;;;;;;508016;29;1401;-83
2022/08/10 01:50:12;;;;;;;2.85;2.30;;;;;;;;;;508169;29;1347;-83
2022/08/10 01:50:32;;;;;;;3.20;2.30;;;;;;;;;;506102;29;885;-83
2022/08/10 01:50:54;;;;;;;3.53;2.40;;;;;;;;;;506283;29;1072;-84
2022/08/10 01:51:17;;;;;;;3.75;2.33;;;;;;;;;;504391;29;1398;-84
2022/08/10 01:51:39;;;;;;;2.40;2.10;;;;;;;;;;506113;29;1238;-84
2022/08/10 01:51:58;;;;;;;2.80;2.07;;;;;;;;;;506809;29;1251;-83
2022/08/10 01:52:17;;;;;;;2.53;2.10;;;;;;;;;;507989;29;1403;-84
2022/08/10 01:52:35;;;;;;;2.38;2.00;;;;;;;;;;510049;29;1253;-84
2022/08/10 01:52:54;;;;;;;2.88;2.20;;;;;;;;;;510328;29;921;-84
2022/08/10 01:53:14;;;;;;;2.47;2.22;;;;;;;;;;510012;29;1520;-83
2022/08/10 01:53:50;;;;;;;3.10;2.30;;;;;;;;;;510193;29;857;-84
2022/08/10 01:54:08;;;;;;;2.95;2.10;;;;;;;;;;507959;29;1436;-84
2022/08/10 01:54:27;;;;;;;3.75;2.30;;;;;;;;;;508137;29;1360;-84
2022/08/10 01:54:44;;;;;;;5.20;2.42;;;;;;;;;;508157;29;1362;-84
2022/08/10 01:55:00;;;;;;;4.45;2.50;;;;;;;;;;507583;29;1325;-84
2022/08/10 01:55:16;;;;;;;3.70;2.63;;;;;;;;;;506194;29;1281;-83
2022/08/10 01:55:33;;;;;;;4.75;2.70;;;;;;;;;;506204;29;1426;-83
2022/08/10 01:55:52;;;;;;;4.18;2.70;;;;;;;;;;506189;29;1331;-84
2022/08/10 01:56:13;;;;;;;5.05;2.70;;;;;;;;;;506073;29;1088;-84
2022/08/10 01:56:33;;;;;;;4.07;2.40;;;;;;;;;;509989;29;1202;-83
2022/08/10 01:56:54;;;;;;;2.47;2.25;;;;;;;;;;508362;29;1128;-84
2022/08/10 01:57:13;;;;;;;3.00;2.30;;;;;;;;;;509987;29;1250;-84
2022/08/10 01:57:31;;;;;;;3.80;2.30;;;;;;;;;;509960;29;1471;-83
2022/08/10 01:57:49;;;;;;;3.28;2.30;;;;;;;;;;510066;29;1411;-84
2022/08/10 01:58:06;;;;;;;3.35;2.30;;;;;;;;;;510049;29;1242;-84
2022/08/10 01:58:24;;;;;;;3.75;2.40;;;;;;;;;;509289;29;829;-84
2022/08/10 01:58:42;;;;;;;3.25;2.42;;;;;;;;;;507994;29;937;-84
2022/08/10 01:59:03;;;;;;;4.53;2.30;;;;;;;;;;505996;29;1428;-83